createdAt,value
2018-07-24T00:02:06.329Z,98968.25
2018-07-24T00:04:35.456Z,98972.38
2018-07-24T00:07:04.520Z,98975.81
2018-07-24T00:09:33.626Z,98971.42
2018-07-24T00:12:02.673Z,98970.94
2018-07-24T00:14:32.155Z,98960.62
2018-07-24T00:17:01.353Z,98963.02
2018-07-24T00:19:30.445Z,98960.33
2018-07-24T00:21:59.580Z,98964.68
2018-07-24T00:24:29.152Z,98964.77
2018-07-24T00:26:58.213Z,98961.75
2018-07-24T00:29:27.240Z,98959.50
2018-07-24T00:31:56.274Z,98953.02
2018-07-24T00:34:25.280Z,98956.80
2018-07-24T00:36:54.358Z,98956.45
2018-07-24T00:39:23.369Z,98945.92
2018-07-24T00:41:52.416Z,98945.42
2018-07-24T00:44:21.460Z,98946.61
2018-07-24T00:46:50.537Z,98943.13
2018-07-24T00:49:19.554Z,98942.67
2018-07-24T00:51:48.681Z,98939.03
2018-07-24T00:54:17.808Z,98934.53
2018-07-24T00:56:46.841Z,98933.73
2018-07-24T00:59:15.882Z,98934.72
2018-07-24T01:01:45.102Z,98927.23
2018-07-24T01:04:14.097Z,98929.83
2018-07-24T01:06:43.162Z,98931.48
2018-07-24T01:09:12.388Z,98920.66
2018-07-24T01:11:41.805Z,98921.69
2018-07-24T01:14:11.105Z,98923.28
2018-07-24T01:16:40.152Z,98920.59
2018-07-24T01:19:09.200Z,98920.26
2018-07-24T01:21:38.637Z,98918.55
2018-07-24T01:24:07.743Z,98919.48
2018-07-24T01:26:36.824Z,98913.91
2018-07-24T01:29:05.869Z,98914.55
2018-07-24T01:31:34.934Z,98916.84
2018-07-24T01:34:03.998Z,98912.91
2018-07-24T01:36:33.050Z,98910.17
2018-07-24T01:39:02.153Z,98904.19
2018-07-24T01:41:31.196Z,98903.67
2018-07-24T01:44:00.270Z,98906.75
2018-07-24T01:46:29.309Z,98899.19
2018-07-24T01:48:58.393Z,98897.02
2018-07-24T01:51:27.425Z,98897.05
2018-07-24T01:53:56.485Z,98893.30
2018-07-24T01:56:25.510Z,98893.05
2018-07-24T01:58:54.592Z,98895.04
2018-07-24T02:01:24.345Z,98890.38
2018-07-24T02:03:53.407Z,98892.36
2018-07-24T02:06:22.485Z,98889.08
2018-07-24T02:08:51.618Z,98885.19
2018-07-24T02:11:20.672Z,98885.56
2018-07-24T02:13:49.864Z,98884.81
2018-07-24T02:16:19.164Z,98885.55
2018-07-24T02:18:48.497Z,98888.75
2018-07-24T02:21:17.560Z,98890.66
2018-07-24T02:23:46.672Z,98890.84
2018-07-24T02:26:15.758Z,98891.52
2018-07-24T02:28:44.832Z,98885.11
2018-07-24T02:33:51.574Z,98888.46
2018-07-24T02:36:20.797Z,98884.39
2018-07-24T02:38:49.865Z,98880.84
2018-07-24T02:41:18.913Z,98886.16
2018-07-24T02:43:47.946Z,98876.27
2018-07-24T02:46:17.050Z,98874.72
2018-07-24T02:48:46.137Z,98872.17
2018-07-24T02:51:15.233Z,98880.50
2018-07-24T02:53:44.598Z,98876.02
2018-07-24T02:56:13.997Z,98876.19
2018-07-24T02:58:43.078Z,98875.73
2018-07-24T03:01:12.146Z,98874.17
2018-07-24T03:03:41.329Z,98870.95
2018-07-24T03:06:10.742Z,98874.92
2018-07-24T03:08:39.832Z,98869.98
2018-07-24T03:11:08.878Z,98875.27
2018-07-24T03:13:37.944Z,98873.95
2018-07-24T03:16:07.046Z,98871.74
2018-07-24T03:18:36.399Z,98872.70
2018-07-24T03:21:05.457Z,98878.07
2018-07-24T03:23:34.529Z,98870.56
2018-07-24T03:26:03.797Z,98873.38
2018-07-24T03:28:32.828Z,98869.04
2018-07-24T03:31:02.601Z,98872.92
2018-07-24T03:33:38.071Z,98871.13
2018-07-24T03:36:07.269Z,98873.05
2018-07-24T03:38:36.337Z,98874.21
2018-07-24T03:41:05.429Z,98872.25
2018-07-24T03:43:34.533Z,98872.58
2018-07-24T03:46:04.050Z,98873.66
2018-07-24T03:48:33.146Z,98865.09
2018-07-24T03:51:02.224Z,98869.10
2018-07-24T03:53:31.335Z,98868.54
2018-07-24T03:56:00.487Z,98873.80
2018-07-24T03:58:29.578Z,98873.59
2018-07-24T04:00:58.673Z,98873.48
2018-07-24T04:03:27.773Z,98874.67
2018-07-24T04:05:57.210Z,98875.22
2018-07-24T04:08:27.226Z,98872.83
2018-07-24T04:10:56.587Z,98867.96
2018-07-24T04:13:25.674Z,98873.45
2018-07-24T04:15:54.769Z,98873.06
2018-07-24T04:18:23.841Z,98871.63
2018-07-24T04:20:53.728Z,98870.59
2018-07-24T04:23:22.838Z,98866.27
2018-07-24T04:25:51.932Z,98868.73
2018-07-24T04:28:20.969Z,98872.96
2018-07-24T04:30:50.068Z,98872.00
2018-07-24T04:33:19.129Z,98870.11
2018-07-24T04:35:48.609Z,98867.47
2018-07-24T04:38:17.710Z,98868.66
2018-07-24T04:40:46.803Z,98873.22
2018-07-24T04:43:16.545Z,98873.55
2018-07-24T04:45:46.185Z,98872.13
2018-07-24T04:48:15.726Z,98866.36
2018-07-24T04:50:44.781Z,98864.70
2018-07-24T04:53:13.815Z,98863.89
2018-07-24T04:55:42.921Z,98867.03
2018-07-24T04:58:12.006Z,98867.75
2018-07-24T05:00:41.083Z,98866.42
2018-07-24T05:03:10.219Z,98877.05
2018-07-24T05:05:39.254Z,98879.16
2018-07-24T05:08:08.300Z,98875.68
2018-07-24T05:10:37.388Z,98771.53
2018-07-24T05:13:06.481Z,98872.43
2018-07-24T05:15:35.626Z,98866.33
2018-07-24T05:18:04.672Z,98867.56
2018-07-24T05:20:33.764Z,98873.66
2018-07-24T05:23:02.911Z,98877.56
2018-07-24T05:25:32.002Z,98869.98
2018-07-24T05:28:01.158Z,98872.67
2018-07-24T05:30:30.301Z,98880.04
2018-07-24T05:32:59.348Z,98882.47
2018-07-24T05:35:28.451Z,98880.92
2018-07-24T05:37:57.654Z,98883.19
2018-07-24T05:40:26.731Z,98879.61
2018-07-24T05:42:56.270Z,98875.42
2018-07-24T05:45:25.351Z,98876.55
2018-07-24T05:47:54.528Z,98877.89
2018-07-24T05:50:23.784Z,98875.08
2018-07-24T05:52:52.947Z,98872.98
2018-07-24T05:55:21.978Z,98875.24
2018-07-24T05:57:51.801Z,98868.84
2018-07-24T06:00:22.173Z,98813.67
2018-07-24T06:02:51.373Z,98874.36
2018-07-24T06:05:20.542Z,98881.10
2018-07-24T06:07:49.713Z,98877.80
2018-07-24T06:10:18.854Z,98880.87
2018-07-24T06:12:47.949Z,98875.84
2018-07-24T06:15:17.042Z,98879.72
2018-07-24T06:17:46.152Z,98881.76
2018-07-24T06:20:15.236Z,98880.00
2018-07-24T06:25:25.330Z,98872.39
2018-07-24T06:27:55.151Z,98867.93
2018-07-24T06:30:32.725Z,98873.29
2018-07-24T06:33:01.970Z,98868.38
2018-07-24T06:35:31.056Z,98868.47
2018-07-24T06:38:00.134Z,98868.06
2018-07-24T06:40:29.338Z,98867.73
2018-07-24T06:43:01.088Z,98857.63
2018-07-24T06:45:31.171Z,98863.69
2018-07-24T06:48:00.340Z,98862.05
2018-07-24T06:50:29.474Z,98857.30
2018-07-24T06:52:58.619Z,98857.63
2018-07-24T06:55:27.677Z,98855.58
2018-07-24T06:57:56.837Z,98859.34
2018-07-24T07:00:26.373Z,98859.99
2018-07-24T07:03:00.330Z,98854.81
2018-07-24T07:05:29.474Z,98852.61
2018-07-24T07:07:58.584Z,98854.23
2018-07-24T07:10:28.723Z,98851.38
2018-07-24T07:12:57.817Z,98852.99
2018-07-24T07:15:33.561Z,98852.83
2018-07-24T07:18:02.938Z,98851.41
2018-07-24T07:20:32.485Z,98851.90
2018-07-24T07:23:02.126Z,98851.47
2018-07-24T07:25:31.344Z,98850.36
2018-07-24T07:28:01.459Z,98847.55
2018-07-24T07:30:30.613Z,98849.69
2018-07-24T07:32:59.894Z,98845.08
2018-07-24T07:35:29.467Z,98848.30
2018-07-24T07:37:58.660Z,98845.46
2018-07-24T07:40:27.760Z,98844.89
2018-07-24T07:42:56.944Z,98843.69
2018-07-24T07:45:26.556Z,98842.84
2018-07-24T07:47:55.545Z,98842.64
2018-07-24T07:50:25.015Z,98840.51
2018-07-24T07:52:54.097Z,98842.52
2018-07-24T07:55:23.237Z,98844.63
2018-07-24T07:57:52.874Z,98845.69
2018-07-24T08:00:21.998Z,98844.20
2018-07-24T08:02:51.388Z,98844.09
2018-07-24T08:05:20.475Z,98838.59
2018-07-24T08:07:49.738Z,98835.79
2018-07-24T08:10:18.906Z,98837.72
2018-07-24T08:12:47.987Z,98825.20
2018-07-24T08:15:17.102Z,98833.10
2018-07-24T08:17:46.355Z,98825.00
2018-07-24T08:20:15.486Z,98827.44
2018-07-24T08:22:44.638Z,98829.49
2018-07-24T08:25:13.906Z,98829.59
2018-07-24T08:27:43.062Z,98832.02
2018-07-24T08:30:12.259Z,98833.16
2018-07-24T08:32:41.510Z,98830.62
2018-07-24T08:35:10.629Z,98830.49
2018-07-24T08:37:39.842Z,98830.58
2018-07-24T08:40:09.006Z,98832.61
2018-07-24T08:42:38.602Z,98824.77
2018-07-24T08:45:07.818Z,98821.99
2018-07-24T08:47:37.319Z,98821.28
2018-07-24T08:50:06.511Z,98820.05
2018-07-24T08:52:35.840Z,98816.04
2018-07-24T08:55:05.291Z,98814.78
2018-07-24T08:57:34.795Z,98817.56
2018-07-24T09:00:03.874Z,98812.77
2018-07-24T09:02:32.965Z,98806.84
2018-07-24T09:05:02.126Z,98809.20
2018-07-24T09:07:31.270Z,98811.98
2018-07-24T09:10:00.322Z,98810.73
2018-07-24T09:12:30.271Z,98808.12
2018-07-24T09:14:59.402Z,98801.37
2018-07-24T09:17:28.522Z,98802.20
2018-07-24T09:19:57.667Z,98805.55
2018-07-24T09:22:27.145Z,98808.09
2018-07-24T09:24:56.293Z,98803.52
2018-07-24T09:27:25.711Z,98802.83
2018-07-24T09:29:54.847Z,98769.11
2018-07-24T09:32:30.746Z,98809.26
2018-07-24T09:34:59.824Z,98808.91
2018-07-24T09:37:29.057Z,98800.38
2018-07-24T09:39:58.133Z,98805.44
2018-07-24T09:42:27.439Z,98804.52
2018-07-24T09:44:57.658Z,98808.20
2018-07-24T09:47:26.841Z,98806.06
2018-07-24T09:49:55.937Z,98807.64
2018-07-24T09:52:25.403Z,98808.97
2018-07-24T09:54:54.685Z,98806.28
2018-07-24T09:57:23.872Z,98812.69
2018-07-24T09:59:53.047Z,98804.31
2018-07-24T10:02:24.052Z,98803.73
2018-07-24T10:04:53.201Z,98796.92
2018-07-24T10:07:22.373Z,98795.56
2018-07-24T10:09:51.486Z,98799.07
2018-07-24T10:12:20.621Z,98797.13
2018-07-24T10:14:49.775Z,98796.87
2018-07-24T10:17:18.944Z,98775.64
2018-07-24T10:19:48.112Z,98789.02
2018-07-24T10:22:17.237Z,98787.66
2018-07-24T10:24:46.402Z,98783.55
2018-07-24T10:27:15.792Z,98786.45
2018-07-24T10:29:44.902Z,98780.04
2018-07-24T10:32:14.622Z,98779.09
2018-07-24T10:34:43.795Z,98776.77
2018-07-24T10:37:13.627Z,98768.59
2018-07-24T10:39:43.047Z,98767.98
2018-07-24T10:42:12.174Z,98765.81
2018-07-24T10:44:42.449Z,98769.59
2018-07-24T10:47:11.622Z,98765.86
2018-07-24T10:49:40.790Z,98772.13
2018-07-24T10:52:09.910Z,98766.80
2018-07-24T10:54:39.004Z,98761.03
2018-07-24T10:57:08.242Z,98761.22
2018-07-24T10:59:37.486Z,98755.75
2018-07-24T11:02:07.666Z,98754.25
2018-07-24T11:04:36.858Z,98744.79
2018-07-24T11:07:06.318Z,98745.73
2018-07-24T11:09:35.463Z,98747.25
2018-07-24T11:12:04.536Z,98744.41
2018-07-24T11:14:33.654Z,98744.59
2018-07-24T11:17:02.693Z,98746.78
2018-07-24T11:19:31.840Z,98751.63
2018-07-24T11:22:00.995Z,98749.44
2018-07-24T11:24:30.127Z,98746.70
2018-07-24T11:26:59.224Z,98741.88
2018-07-24T11:29:28.627Z,98736.31
2018-07-24T11:31:57.721Z,98731.34
2018-07-24T11:34:26.821Z,98731.34
2018-07-24T11:36:56.835Z,98729.67
2018-07-24T11:39:26.010Z,98734.12
2018-07-24T11:41:55.139Z,98730.27
2018-07-24T11:44:24.329Z,98721.91
2018-07-24T11:46:53.609Z,98722.44
2018-07-24T11:49:22.712Z,98722.16
2018-07-24T11:51:51.889Z,98723.14
2018-07-24T11:54:21.187Z,98719.83
2018-07-24T11:56:50.258Z,98696.05
2018-07-24T11:59:19.320Z,98711.41
2018-07-24T12:01:48.519Z,98705.64
2018-07-24T12:04:20.421Z,98708.94
2018-07-24T12:06:50.642Z,98704.83
2018-07-24T12:09:20.052Z,98705.68
2018-07-24T12:11:49.171Z,98695.80
2018-07-24T12:14:18.699Z,98692.39
2018-07-24T12:16:47.786Z,98693.05
2018-07-24T12:19:16.910Z,98688.19
2018-07-24T12:21:46.133Z,98684.67
2018-07-24T12:24:15.274Z,98690.69
2018-07-24T12:26:44.659Z,98688.14
2018-07-24T12:29:13.855Z,98690.72
2018-07-24T12:31:42.901Z,98696.77
2018-07-24T12:34:11.964Z,98694.33
2018-07-24T12:36:41.045Z,98695.89
2018-07-24T12:39:11.257Z,98692.63
2018-07-24T12:41:40.668Z,98681.59
2018-07-24T12:44:09.841Z,98678.66
2018-07-24T12:46:39.368Z,98676.78
2018-07-24T12:49:10.481Z,98676.00
2018-07-24T12:51:39.696Z,98669.71
2018-07-24T12:54:08.836Z,98669.81
2018-07-24T12:56:38.006Z,98664.76
2018-07-24T12:59:07.121Z,98662.72
2018-07-24T13:01:37.445Z,98659.82
2018-07-24T13:04:06.721Z,98663.53
2018-07-24T13:06:35.753Z,98664.12
2018-07-24T13:09:07.590Z,98657.89
2018-07-24T13:11:36.697Z,98658.69
2018-07-24T13:14:05.852Z,98660.84
2018-07-24T13:16:35.058Z,98658.24
2018-07-24T13:19:04.101Z,98646.38
2018-07-24T13:21:33.158Z,98649.36
2018-07-24T13:24:02.233Z,98644.01
2018-07-24T13:26:31.435Z,98644.30
2018-07-24T13:29:00.979Z,98647.18
2018-07-24T13:31:30.399Z,98645.33
2018-07-24T13:33:59.511Z,98648.11
2018-07-24T13:36:28.857Z,98640.70
2018-07-24T13:38:58.752Z,98643.63
2018-07-24T13:41:28.845Z,98637.36
2018-07-24T13:43:58.608Z,98640.22
2018-07-24T13:46:27.700Z,98635.08
2018-07-24T13:48:56.765Z,98633.31
2018-07-24T13:51:25.841Z,98630.16
2018-07-24T13:53:54.923Z,98633.03
2018-07-24T13:56:24.032Z,98635.08
2018-07-24T13:58:53.213Z,98629.44
2018-07-24T14:01:22.597Z,98624.20
2018-07-24T14:03:51.681Z,98624.55
2018-07-24T14:06:20.718Z,98623.53
2018-07-24T14:08:50.111Z,98629.48
2018-07-24T14:11:19.258Z,98630.16
2018-07-24T14:13:48.501Z,98627.73
2018-07-24T14:16:18.254Z,98628.06
2018-07-24T14:18:47.402Z,98618.52
2018-07-24T14:21:16.490Z,98614.98
2018-07-24T14:23:45.545Z,98613.89
2018-07-24T14:26:14.682Z,98615.04
2018-07-24T14:28:43.771Z,98614.43
2018-07-24T14:31:14.216Z,98608.84
2018-07-24T14:33:43.399Z,98609.25
2018-07-24T14:36:12.539Z,98602.44
2018-07-24T14:38:42.094Z,98609.32
2018-07-24T14:41:11.194Z,98598.28
2018-07-24T14:43:40.422Z,98605.68
2018-07-24T14:46:09.612Z,98597.94
2018-07-24T14:48:38.702Z,98603.37
2018-07-24T14:51:08.895Z,98599.55
2018-07-24T14:53:40.280Z,98593.23
2018-07-24T14:56:11.304Z,98595.84
2018-07-24T14:58:41.974Z,98599.91
2018-07-24T15:01:11.042Z,98597.13
2018-07-24T15:03:40.173Z,98605.28
2018-07-24T15:06:09.533Z,98600.73
2018-07-24T15:08:38.662Z,98592.52
2018-07-24T15:11:08.093Z,98594.90
2018-07-24T15:13:37.852Z,98596.06
2018-07-24T15:16:06.985Z,98591.30
2018-07-24T15:18:36.077Z,98592.77
2018-07-24T15:21:05.442Z,98592.55
2018-07-24T15:23:35.139Z,98593.11
2018-07-24T15:26:04.522Z,98592.22
2018-07-24T15:28:33.667Z,98590.01
2018-07-24T15:31:02.816Z,98583.41
2018-07-24T15:33:31.956Z,98581.28
2018-07-24T15:36:01.055Z,98582.90
2018-07-24T15:38:30.404Z,98588.09
2018-07-24T15:40:59.562Z,98583.08
2018-07-24T15:43:29.118Z,98583.64
2018-07-24T15:45:58.361Z,98576.65
2018-07-24T15:48:27.794Z,98582.14
2018-07-24T15:50:56.866Z,98569.56
2018-07-24T15:53:25.934Z,98569.56
2018-07-24T15:55:55.174Z,98570.81
2018-07-24T15:58:24.343Z,98568.33
2018-07-24T16:00:53.447Z,98564.45
2018-07-24T16:03:22.521Z,98558.73
2018-07-24T16:05:51.618Z,98559.52
2018-07-24T16:08:20.690Z,98558.38
2018-07-24T16:10:49.783Z,98557.59
2018-07-24T16:13:18.901Z,98552.67
2018-07-24T16:15:47.987Z,98560.22
2018-07-24T16:18:17.014Z,98550.83
2018-07-24T16:20:46.068Z,98548.95
2018-07-24T16:23:15.162Z,98553.19
2018-07-24T16:25:44.233Z,98553.63
2018-07-24T16:28:13.351Z,98559.55
2018-07-24T16:30:42.442Z,98560.41
2018-07-24T16:33:11.648Z,98558.13
2018-07-24T16:35:41.740Z,98555.17
2018-07-24T16:38:10.837Z,98556.88
2018-07-24T16:40:41.795Z,98561.64
2018-07-24T16:43:12.290Z,98558.84
2018-07-24T16:45:41.469Z,98555.84
2018-07-24T16:48:10.529Z,98559.55
2018-07-24T16:50:39.625Z,98550.31
2018-07-24T16:53:08.689Z,98552.19
2018-07-24T16:55:37.794Z,98552.78
2018-07-24T16:58:06.937Z,98553.44
2018-07-24T17:00:36.029Z,98564.50
2018-07-24T17:03:05.107Z,98556.34
2018-07-24T17:05:34.161Z,98561.11
2018-07-24T17:08:03.228Z,98556.69
2018-07-24T17:10:32.353Z,98554.35
2018-07-24T17:13:01.494Z,98558.44
2018-07-24T17:15:30.688Z,98553.05
2018-07-24T17:17:59.912Z,98553.72
2018-07-24T17:20:29.149Z,98557.06
2018-07-24T17:22:58.275Z,98552.81
2018-07-24T17:25:27.381Z,98557.48
2018-07-24T17:27:56.674Z,98552.77
2018-07-24T17:30:25.865Z,98554.52
2018-07-24T17:32:54.950Z,98552.29
2018-07-24T17:35:24.090Z,98553.09
2018-07-24T17:37:53.146Z,98552.57
2018-07-24T17:40:22.264Z,98550.78
2018-07-24T17:42:51.401Z,98548.77
2018-07-24T17:45:20.531Z,98554.04
2018-07-24T17:47:49.700Z,98556.21
2018-07-24T17:50:18.877Z,98557.06
2018-07-24T17:52:48.497Z,98558.80
2018-07-24T17:55:17.594Z,98557.69
2018-07-24T17:57:46.725Z,98556.47
2018-07-24T18:00:15.854Z,98562.05
2018-07-24T18:02:45.013Z,98561.39
2018-07-24T18:05:14.219Z,98560.53
2018-07-24T18:07:43.347Z,98557.11
2018-07-24T18:10:12.422Z,98562.24
2018-07-24T18:12:41.506Z,98561.83
2018-07-24T18:15:10.554Z,98564.33
2018-07-24T18:17:39.884Z,98568.73
2018-07-24T18:20:09.352Z,98562.48
2018-07-24T18:22:38.379Z,98561.89
2018-07-24T18:25:07.610Z,98564.84
2018-07-24T18:27:36.854Z,98562.05
2018-07-24T18:30:06.107Z,98567.48
2018-07-24T18:32:35.187Z,98569.52
2018-07-24T18:35:04.321Z,98565.43
2018-07-24T18:37:33.508Z,98564.48
2018-07-24T18:40:02.681Z,98567.67
2018-07-24T18:42:31.790Z,98569.20
2018-07-24T18:45:00.896Z,98572.97
2018-07-24T18:47:30.081Z,98570.91
2018-07-24T18:49:59.308Z,98576.59
2018-07-24T18:52:29.304Z,98570.69
2018-07-24T18:54:58.469Z,98573.68
2018-07-24T18:57:27.609Z,98581.36
2018-07-24T18:59:56.788Z,98576.31
2018-07-24T19:02:25.891Z,98572.53
2018-07-24T19:04:55.158Z,98576.84
2018-07-24T19:07:24.218Z,98576.31
2018-07-24T19:09:53.630Z,98572.08
2018-07-24T19:12:23.043Z,98580.80
2018-07-24T19:14:52.369Z,98580.28
2018-07-24T19:17:21.673Z,98583.20
2018-07-24T19:19:51.150Z,98579.40
2018-07-24T19:22:20.304Z,98585.46
2018-07-24T19:24:50.350Z,98587.50
2018-07-24T19:27:19.742Z,98591.70
2018-07-24T19:29:49.195Z,98584.94
2018-07-24T19:32:18.667Z,98592.88
2018-07-24T19:34:48.082Z,98594.69
2018-07-24T19:37:17.569Z,98598.82
2018-07-24T19:39:47.031Z,98601.61
2018-07-24T19:42:16.339Z,98600.34
2018-07-24T19:44:45.582Z,98610.14
2018-07-24T19:47:14.972Z,98606.25
2018-07-24T19:49:44.351Z,98605.69
2018-07-24T19:52:14.286Z,98611.97
2018-07-24T19:54:43.735Z,98609.84
2018-07-24T19:57:13.125Z,98608.73
2018-07-24T19:59:42.472Z,98609.91
2018-07-24T20:02:11.895Z,98615.95
2018-07-24T20:04:41.172Z,98621.01
2018-07-24T20:07:10.476Z,98619.27
2018-07-24T20:09:40.133Z,98630.72
2018-07-24T20:12:09.340Z,98630.54
2018-07-24T20:14:38.491Z,98625.88
2018-07-24T20:17:07.755Z,98639.45
2018-07-24T20:19:36.915Z,98634.34
2018-07-24T20:22:06.453Z,98635.88
2018-07-24T20:24:35.636Z,98630.00
2018-07-24T20:27:04.786Z,98634.08
2018-07-24T20:29:33.943Z,98630.55
2018-07-24T20:32:03.186Z,98634.27
2018-07-24T20:34:32.319Z,98633.89
2018-07-24T20:37:01.601Z,98629.22
2018-07-24T20:39:30.821Z,98632.98
2018-07-24T20:41:59.946Z,98632.16
2018-07-24T20:44:29.083Z,98625.89
2018-07-24T20:46:58.278Z,98628.78
2018-07-24T20:49:27.490Z,98635.03
2018-07-24T20:51:56.707Z,98631.71
2018-07-24T20:54:25.799Z,98635.20
2018-07-24T20:56:54.932Z,98638.88
2018-07-24T20:59:24.036Z,98636.66
2018-07-24T21:01:53.490Z,98634.92
2018-07-24T21:04:22.699Z,98635.06
2018-07-24T21:06:51.807Z,98633.52
2018-07-24T21:09:20.993Z,98638.05
2018-07-24T21:11:50.065Z,98638.66
2018-07-24T21:14:19.457Z,98641.86
2018-07-24T21:16:48.738Z,98637.37
2018-07-24T21:19:17.843Z,98644.92
2018-07-24T21:21:47.118Z,98501.88
2018-07-24T21:24:16.204Z,98641.34
2018-07-24T21:26:45.331Z,98643.45
2018-07-24T21:29:14.405Z,98650.40
2018-07-24T21:31:43.521Z,98649.02
2018-07-24T21:34:12.593Z,98651.75
2018-07-24T21:36:41.754Z,98648.97
2018-07-24T21:39:11.797Z,98653.16
2018-07-24T21:41:40.958Z,98651.66
2018-07-24T21:44:10.045Z,98653.16
2018-07-24T21:46:39.165Z,98650.55
2018-07-24T21:49:08.258Z,98654.14
2018-07-24T21:51:37.365Z,98657.75
2018-07-24T21:54:06.452Z,98658.25
2018-07-24T21:56:35.568Z,98654.50
2018-07-24T21:59:04.618Z,98655.30
2018-07-24T22:01:34.237Z,98656.47
2018-07-24T22:04:03.645Z,98651.73
2018-07-24T22:06:32.767Z,98661.47
2018-07-24T22:09:01.940Z,98654.70
2018-07-24T22:11:30.918Z,98665.92
2018-07-24T22:13:59.962Z,98663.45
2018-07-24T22:16:29.045Z,98669.34
2018-07-24T22:18:58.121Z,98663.18
2018-07-24T22:21:27.201Z,98664.31
2018-07-24T22:23:56.332Z,98669.55
2018-07-24T22:26:25.407Z,98670.08
2018-07-24T22:28:54.534Z,98672.78
2018-07-24T22:31:23.778Z,98675.16
2018-07-24T22:33:52.854Z,98674.36
2018-07-24T22:36:21.962Z,98673.63
2018-07-24T22:38:51.050Z,98672.47
2018-07-24T22:41:20.125Z,98672.38
2018-07-24T22:43:49.262Z,98677.94
2018-07-24T22:46:18.569Z,98672.37
2018-07-24T23:07:55.266Z,98678.98
2018-07-24T23:10:29.645Z,98681.34
2018-07-24T23:12:58.818Z,98680.77
2018-07-24T23:15:27.952Z,98684.26
2018-07-24T23:17:57.007Z,98685.84
2018-07-24T23:20:26.740Z,98685.25
2018-07-24T23:22:55.842Z,98687.25
2018-07-24T23:25:25.325Z,98683.64
2018-07-24T23:27:55.038Z,98683.63
2018-07-24T23:30:24.186Z,98685.77
2018-07-24T23:32:53.254Z,98685.68
2018-07-24T23:35:22.353Z,98692.83
2018-07-24T23:37:51.525Z,98685.72
2018-07-24T23:40:20.719Z,98690.42
2018-07-24T23:42:51.166Z,98692.10
2018-07-24T23:45:20.238Z,98689.90
2018-07-24T23:47:49.304Z,98690.50
2018-07-24T23:50:18.525Z,98684.81
2018-07-24T23:52:47.634Z,98685.38
2018-07-24T23:55:16.745Z,98689.46
2018-07-24T23:57:45.972Z,98688.35
